Time;durP1;ratioP1;P1;durP2;ratioP2;P2;SDS_P1;SDS_P2;PMS_P1;PMS_P2;Temp;Humidity;BMP_temperature;BMP_pressure;BME280_temperature;BME280_humidity;BME280_pressure;Samples;Min_cycle;Max_cycle;Signal;HPM_P1;HPM_P2
2022/02/18 00:01:49;;;;;;;7.80;0.40;;;;;;;5.72;58.51;99252.22;106617;1268;22557;-77
2022/02/18 00:04:20;;;;;;;6.30;0.70;;;;;;;5.71;58.47;99258.17;106560;1268;25411;-77
2022/02/18 00:06:51;;;;;;;3.90;0.60;;;;;;;5.70;58.50;99259.05;106590;1268;22596;-77
2022/02/18 00:09:23;;;;;;;3.80;0.50;;;;;;;5.68;58.49;99267.28;106507;1268;22550;-77
2022/02/18 00:11:54;;;;;;;10.70;0.50;;;;;;;5.67;58.27;99268.66;106530;1268;22607;-78
2022/02/18 00:14:25;;;;;;;3.30;0.40;;;;;;;5.68;58.25;99270.80;106534;1268;23211;-77
2022/02/18 00:16:56;;;;;;;10.90;0.60;;;;;;;5.67;58.26;99269.55;106514;1268;25826;-77
2022/02/18 00:19:27;;;;;;;4.60;0.50;;;;;;;5.65;58.49;99269.97;106548;1268;22572;-78
2022/02/18 00:21:58;;;;;;;5.40;0.50;;;;;;;5.62;58.68;99274.45;106461;1268;22536;-77
2022/02/18 00:24:30;;;;;;;7.90;1.10;;;;;;;5.59;58.66;99280.55;106646;1268;22541;-77
2022/02/18 00:27:01;;;;;;;5.60;0.50;;;;;;;5.57;58.84;99286.20;106495;1268;22551;-77
2022/02/18 00:29:32;;;;;;;8.20;1.00;;;;;;;5.54;58.96;99294.55;106566;1268;22543;-78
2022/02/18 00:32:07;;;;;;;7.60;0.60;;;;;;;5.52;58.67;99296.06;106460;1268;25940;-77
2022/02/18 00:34:39;;;;;;;4.40;0.60;;;;;;;5.52;58.81;99304.56;106696;1268;22560;-76
2022/02/18 00:37:10;;;;;;;8.10;0.70;;;;;;;5.50;58.74;99306.52;106516;1268;25591;-76
2022/02/18 00:39:40;;;;;;;5.40;0.60;;;;;;;5.49;59.01;99300.31;106565;1268;25326;-77
2022/02/18 00:42:11;;;;;;;7.30;0.80;;;;;;;5.47;58.96;99299.86;106483;1268;25591;-77
2022/02/18 00:44:43;;;;;;;5.00;0.40;;;;;;;5.46;59.09;99303.95;106489;1268;22544;-77
2022/02/18 00:47:14;;;;;;;4.50;0.50;;;;;;;5.44;59.30;99308.95;106494;1268;23302;-77
2022/02/18 00:49:46;;;;;;;5.60;0.50;;;;;;;5.43;59.20;99318.73;106560;1268;25255;-77
2022/02/18 00:52:18;;;;;;;4.70;0.40;;;;;;;5.42;59.39;99315.84;106605;1268;22544;-77
2022/02/18 00:54:49;;;;;;;3.90;0.40;;;;;;;5.40;59.34;99323.44;106561;1268;22548;-77
2022/02/18 00:57:20;;;;;;;5.30;0.40;;;;;;;5.39;59.34;99329.80;106572;1268;22531;-77
2022/02/18 00:59:50;;;;;;;6.60;0.70;;;;;;;5.39;59.28;99336.46;106569;1268;22558;-77
2022/02/18 01:02:21;;;;;;;7.00;0.70;;;;;;;5.40;59.40;99334.45;106595;1268;22566;-77
2022/02/18 01:04:52;;;;;;;4.40;0.40;;;;;;;5.39;59.31;99335.50;106498;1268;22580;-77
2022/02/18 01:07:25;;;;;;;5.80;0.40;;;;;;;5.39;59.46;99329.45;106486;1268;23306;-77
2022/02/18 01:09:56;;;;;;;6.90;0.60;;;;;;;5.37;59.43;99337.11;106626;1268;22592;-77
2022/02/18 01:12:27;;;;;;;6.90;0.70;;;;;;;5.34;59.48;99336.32;106532;1268;25344;-77
2022/02/18 01:14:58;;;;;;;7.10;0.60;;;;;;;5.30;59.46;99333.25;106522;1268;23061;-77
2022/02/18 01:17:29;;;;;;;5.50;0.40;;;;;;;5.25;59.56;99334.03;106488;1268;22592;-78
2022/02/18 01:20:00;;;;;;;8.40;0.50;;;;;;;5.21;59.51;99340.06;106491;1268;22546;-77
2022/02/18 01:22:30;;;;;;;7.50;0.60;;;;;;;5.19;59.50;99343.89;106563;1268;24285;-78
2022/02/18 01:25:01;;;;;;;4.60;0.40;;;;;;;5.17;59.69;99346.80;106508;1268;25316;-77
2022/02/18 01:27:32;;;;;;;10.30;1.30;;;;;;;5.14;59.72;99342.23;106526;1268;25330;-77
2022/02/18 01:30:04;;;;;;;7.60;0.90;;;;;;;5.11;59.83;99348.90;106503;1268;25361;-77
2022/02/18 01:32:35;;;;;;;8.20;0.60;;;;;;;5.06;59.96;99352.75;106497;1268;22544;-77
2022/02/18 01:35:07;;;;;;;5.60;0.50;;;;;;;5.02;59.85;99355.32;106516;1268;22532;-77
2022/02/18 01:37:38;;;;;;;6.80;0.70;;;;;;;5.00;60.12;99352.48;106554;1268;22550;-77
2022/02/18 01:40:11;;;;;;;9.10;0.60;;;;;;;4.97;60.13;99349.05;106547;1268;22567;-77
2022/02/18 01:42:42;;;;;;;8.70;0.50;;;;;;;4.94;60.19;99359.16;106600;1268;22537;-77
2022/02/18 01:45:13;;;;;;;9.00;0.60;;;;;;;4.90;60.37;99359.01;106581;1268;22549;-77
2022/02/18 01:47:44;;;;;;;4.60;0.40;;;;;;;4.85;60.43;99360.88;106573;1268;22554;-77
2022/02/18 01:50:17;;;;;;;4.60;0.40;;;;;;;4.81;60.57;99368.98;106543;1268;22591;-77
2022/02/18 01:52:51;;;;;;;5.40;0.40;;;;;;;4.79;60.58;99367.30;106548;1268;22668;-76
2022/02/18 01:55:24;;;;;;;8.30;1.10;;;;;;;4.77;60.66;99372.77;106566;1268;24285;-77
2022/02/18 01:57:57;;;;;;;4.50;0.30;;;;;;;4.74;60.72;99375.17;106471;1268;22609;-77
2022/02/18 02:00:31;;;;;;;5.20;1.00;;;;;;;4.70;60.83;99384.94;106604;1268;22566;-78
2022/02/18 02:03:04;;;;;;;8.30;0.70;;;;;;;4.66;60.66;99377.14;106576;1268;22599;-77
2022/02/18 02:05:36;;;;;;;4.90;0.50;;;;;;;4.65;60.73;99379.71;106466;1268;22528;-77
2022/02/18 02:08:08;;;;;;;2.70;0.40;;;;;;;4.62;60.76;99383.05;106447;1268;23203;-77
2022/02/18 02:10:43;;;;;;;7.30;0.50;;;;;;;4.60;60.70;99376.58;106481;1268;22604;-77
2022/02/18 02:13:30;;;;;;;3.50;0.50;;;;;;;4.60;60.78;99372.64;106557;1268;26658;-78
2022/02/18 02:16:01;;;;;;;4.30;0.50;;;;;;;4.57;60.75;99378.19;106540;1268;22564;-76
2022/02/18 02:18:32;;;;;;;7.30;0.60;;;;;;;4.56;60.76;99382.65;106490;1268;22661;-77
2022/02/18 02:21:03;;;;;;;10.40;0.70;;;;;;;4.58;60.85;99386.25;106455;1268;23199;-78
2022/02/18 02:23:35;;;;;;;5.70;0.60;;;;;;;4.59;60.83;99383.11;106560;1268;23345;-76
2022/02/18 02:26:11;;;;;;;4.80;1.10;;;;;;;4.60;60.88;99390.97;106562;1268;24285;-77
2022/02/18 02:28:43;;;;;;;4.70;0.40;;;;;;;4.59;60.95;99394.52;106588;1268;24363;-77
2022/02/18 02:31:14;;;;;;;5.50;0.50;;;;;;;4.58;61.13;99395.77;106517;1268;25368;-77
2022/02/18 02:33:45;;;;;;;2.20;0.40;;;;;;;4.58;61.17;99399.63;106502;1268;25339;-76
2022/02/18 02:36:15;;;;;;;9.40;0.50;;;;;;;4.58;61.25;99398.38;106507;1268;22534;-77
2022/02/18 02:38:47;;;;;;;3.90;0.60;;;;;;;4.57;61.33;99402.70;106488;1268;24272;-77
2022/02/18 02:41:18;;;;;;;3.50;0.50;;;;;;;4.56;61.42;99408.27;106456;1268;22550;-77
2022/02/18 02:43:49;;;;;;;5.20;0.50;;;;;;;4.55;61.47;99401.84;106497;1268;25931;-77
2022/02/18 02:46:20;;;;;;;5.40;0.50;;;;;;;4.54;61.40;99401.78;106480;1268;25250;-77
2022/02/18 02:48:50;;;;;;;3.40;0.40;;;;;;;4.55;61.43;99398.98;106550;1268;22564;-77
2022/02/18 02:51:21;;;;;;;2.70;0.40;;;;;;;4.54;61.43;99404.23;106544;1268;25312;-76
2022/02/18 02:53:52;;;;;;;5.20;0.60;;;;;;;4.55;61.43;99405.92;106569;1268;22615;-76
2022/02/18 02:56:23;;;;;;;3.20;0.30;;;;;;;4.55;61.46;99410.69;106518;1267;25381;-77
2022/02/18 02:58:54;;;;;;;4.00;0.60;;;;;;;4.54;61.40;99406.79;106481;1268;22553;-77
2022/02/18 03:01:25;;;;;;;6.80;0.70;;;;;;;4.53;61.44;99408.17;106522;1268;22559;-77
2022/02/18 03:03:57;;;;;;;6.40;0.60;;;;;;;4.51;61.38;99414.08;106501;1268;24281;-77
2022/02/18 03:06:29;;;;;;;7.00;0.60;;;;;;;4.49;61.42;99418.45;106573;1268;26247;-77
2022/02/18 03:09:00;;;;;;;3.80;0.50;;;;;;;4.47;61.42;99417.70;106551;1268;22539;-77
2022/02/18 03:11:32;;;;;;;9.80;0.80;;;;;;;4.47;61.43;99432.82;106524;1268;24421;-76
2022/02/18 03:14:04;;;;;;;4.20;0.50;;;;;;;4.47;61.49;99432.16;106809;1268;26586;-78
2022/02/18 03:16:34;;;;;;;5.40;0.70;;;;;;;4.48;61.53;99435.21;106509;1268;22553;-76
2022/02/18 03:19:05;;;;;;;7.40;1.00;;;;;;;4.47;61.58;99434.23;106440;1269;22544;-77
2022/02/18 03:21:37;;;;;;;7.10;1.20;;;;;;;4.46;61.67;99437.45;106549;1268;25333;-77
2022/02/18 03:24:09;;;;;;;9.40;0.60;;;;;;;4.44;61.69;99436.16;106494;1268;22529;-77
2022/02/18 03:26:40;;;;;;;8.50;0.70;;;;;;;4.45;61.74;99447.49;106605;1268;24266;-78
2022/02/18 03:29:12;;;;;;;10.20;0.70;;;;;;;4.46;61.79;99452.95;106506;1268;25232;-77
2022/02/18 03:31:43;;;;;;;7.00;0.50;;;;;;;4.47;61.81;99461.02;106506;1268;22524;-77
2022/02/18 03:34:14;;;;;;;9.30;0.60;;;;;;;4.45;61.89;99463.14;106503;1267;23213;-76
2022/02/18 03:36:45;;;;;;;5.00;0.70;;;;;;;4.42;61.90;99465.84;106483;1268;22557;-77
2022/02/18 03:39:16;;;;;;;8.80;0.60;;;;;;;4.42;61.88;99465.32;106473;1268;24268;-77
2022/02/18 03:41:47;;;;;;;4.30;0.40;;;;;;;4.41;61.95;99472.13;106531;1268;22985;-77
2022/02/18 03:44:18;;;;;;;7.90;0.70;;;;;;;4.39;61.95;99473.38;106558;1268;22585;-77
2022/02/18 03:46:49;;;;;;;5.90;0.60;;;;;;;4.38;62.04;99476.81;106486;1268;26526;-77
2022/02/18 03:49:20;;;;;;;4.60;0.60;;;;;;;4.36;61.96;99483.78;106531;1268;26917;-76
2022/02/18 03:51:51;;;;;;;6.40;0.40;;;;;;;4.34;62.02;99491.29;106489;1268;24433;-78
2022/02/18 03:54:24;;;;;;;7.10;0.50;;;;;;;4.32;61.99;99486.92;106448;1268;25538;-77
2022/02/18 03:56:56;;;;;;;5.40;0.40;;;;;;;4.29;62.11;99488.64;106730;1268;22540;-77
2022/02/18 03:59:26;;;;;;;9.70;0.80;;;;;;;4.26;62.13;99494.83;106520;1268;22555;-77
2022/02/18 04:01:57;;;;;;;8.80;0.60;;;;;;;4.24;62.12;99502.83;106515;1268;25257;-77
2022/02/18 04:04:28;;;;;;;3.20;0.60;;;;;;;4.24;62.19;99506.77;106509;1268;22726;-77
2022/02/18 04:06:59;;;;;;;8.20;0.60;;;;;;;4.24;62.20;99509.61;106492;1268;22535;-77
2022/02/18 04:09:30;;;;;;;6.00;0.50;;;;;;;4.23;62.26;99503.63;106480;1268;22551;-76
2022/02/18 04:12:01;;;;;;;3.90;0.50;;;;;;;4.24;62.22;99504.02;106350;1268;242369;-77
2022/02/18 04:14:34;;;;;;;11.50;0.80;;;;;;;4.23;62.28;99500.89;106510;1268;22570;-76
2022/02/18 04:17:06;;;;;;;5.90;0.60;;;;;;;4.20;62.30;99502.25;106531;1268;23383;-77
2022/02/18 04:19:38;;;;;;;7.60;0.50;;;;;;;4.17;62.35;99500.31;106530;1268;22550;-76
2022/02/18 04:22:10;;;;;;;4.20;0.50;;;;;;;4.15;62.46;99503.87;106840;1268;24233;-76
2022/02/18 04:24:42;;;;;;;5.00;0.70;;;;;;;4.14;62.47;99508.09;106589;1268;22568;-76
2022/02/18 04:27:13;;;;;;;7.60;0.60;;;;;;;4.13;62.54;99516.55;106498;1268;22527;-76
2022/02/18 04:29:45;;;;;;;8.90;0.80;;;;;;;4.12;62.58;99515.60;106481;1268;24437;-77
2022/02/18 04:32:16;;;;;;;4.60;0.50;;;;;;;4.11;62.64;99519.65;106485;1268;24319;-77
2022/02/18 04:34:46;;;;;;;8.40;0.50;;;;;;;4.11;62.59;99525.58;106493;1268;22698;-77
2022/02/18 04:37:18;;;;;;;4.60;0.50;;;;;;;4.11;62.67;99527.23;106495;1268;22618;-77
2022/02/18 04:39:50;;;;;;;6.40;0.60;;;;;;;4.12;62.61;99523.15;106641;1267;22546;-77
2022/02/18 04:42:21;;;;;;;9.50;0.80;;;;;;;4.13;62.67;99528.65;106536;1268;22535;-77
2022/02/18 04:44:52;;;;;;;4.50;0.60;;;;;;;4.12;62.52;99526.34;106503;1268;25483;-77
2022/02/18 04:47:23;;;;;;;5.10;0.40;;;;;;;4.11;62.65;99524.47;106465;1268;24250;-77
2022/02/18 04:49:53;;;;;;;5.50;0.80;;;;;;;4.10;62.61;99528.84;106512;1268;22585;-76
2022/02/18 04:52:25;;;;;;;6.50;0.60;;;;;;;4.09;62.63;99530.29;106461;1268;22623;-78
2022/02/18 04:54:56;;;;;;;4.00;0.50;;;;;;;4.11;62.56;99536.16;106522;1268;22643;-77
2022/02/18 04:57:27;;;;;;;6.00;0.70;;;;;;;4.13;62.64;99532.77;106447;1268;25374;-77
2022/02/18 04:59:59;;;;;;;11.00;0.70;;;;;;;4.12;62.66;99536.44;106491;1268;25331;-77
2022/02/18 05:02:30;;;;;;;8.30;0.70;;;;;;;4.09;62.64;99539.84;106471;1268;25502;-76
2022/02/18 05:05:02;;;;;;;8.10;0.50;;;;;;;4.10;62.70;99540.97;106493;1268;25365;-76
2022/02/18 05:07:34;;;;;;;10.30;0.70;;;;;;;4.08;62.76;99541.67;106466;1268;24712;-77
2022/02/18 05:10:07;;;;;;;7.60;0.60;;;;;;;4.07;62.77;99539.27;106554;1268;24289;-77
2022/02/18 05:12:38;;;;;;;10.10;0.90;;;;;;;4.06;62.84;99549.48;106605;1268;25461;-78
2022/02/18 05:15:10;;;;;;;9.20;0.60;;;;;;;4.06;62.92;99550.30;106538;1268;22548;-78
2022/02/18 05:17:46;;;;;;;6.40;0.80;;;;;;;4.04;62.92;99558.19;106926;1268;22560;-76
2022/02/18 05:20:18;;;;;;;6.60;0.50;;;;;;;4.01;62.94;99557.42;106753;1268;22487;-77
2022/02/18 05:22:50;;;;;;;8.30;0.70;;;;;;;3.99;63.02;99558.60;106669;1268;22537;-76
2022/02/18 05:25:21;;;;;;;9.60;0.80;;;;;;;3.96;63.08;99557.30;106563;1268;25604;-77
2022/02/18 05:27:52;;;;;;;8.80;0.50;;;;;;;3.94;63.12;99563.22;106502;1268;22622;-76
2022/02/18 05:30:23;;;;;;;6.10;0.80;;;;;;;3.91;63.19;99568.84;106563;1268;23131;-77
2022/02/18 05:32:54;;;;;;;10.70;0.60;;;;;;;3.88;63.19;99575.18;106531;1268;24307;-77
2022/02/18 05:35:25;;;;;;;8.80;0.80;;;;;;;3.86;63.17;99567.92;106520;1268;22572;-77
2022/02/18 05:37:56;;;;;;;7.00;0.70;;;;;;;3.84;63.28;99571.70;106429;1268;24277;-77
2022/02/18 05:40:27;;;;;;;6.60;0.80;;;;;;;3.82;63.31;99575.95;106495;1268;23285;-78
2022/02/18 05:42:58;;;;;;;8.50;0.70;;;;;;;3.79;63.35;99576.05;106506;1268;24274;-77
2022/02/18 05:45:29;;;;;;;9.60;1.60;;;;;;;3.76;63.47;99581.31;106504;1267;22561;-77
2022/02/18 05:48:00;;;;;;;10.00;0.60;;;;;;;3.73;63.48;99590.55;106501;1268;22550;-77
2022/02/18 05:50:31;;;;;;;5.00;0.60;;;;;;;3.71;63.53;99592.70;106563;1268;22601;-77
2022/02/18 05:53:02;;;;;;;7.90;0.40;;;;;;;3.67;63.67;99597.39;106459;1268;22611;-77
2022/02/18 05:55:33;;;;;;;9.20;0.60;;;;;;;3.63;63.68;99601.41;106511;1268;25316;-77
2022/02/18 05:58:04;;;;;;;6.60;0.50;;;;;;;3.60;63.70;99595.99;106587;1268;22671;-77
2022/02/18 06:00:35;;;;;;;7.20;0.70;;;;;;;3.59;63.70;99604.39;106507;1268;22560;-76
2022/02/18 06:03:06;;;;;;;9.30;0.60;;;;;;;3.57;63.79;99598.54;106488;1268;22508;-77
2022/02/18 06:05:37;;;;;;;6.20;0.60;;;;;;;3.55;63.87;99598.59;106573;1268;22538;-78
2022/02/18 06:08:10;;;;;;;9.10;0.50;;;;;;;3.54;63.90;99604.71;107059;1268;25246;-83
2022/02/18 06:10:41;;;;;;;6.20;0.50;;;;;;;3.56;64.01;99601.02;107553;1268;22566;-81
2022/02/18 06:13:12;;;;;;;8.70;0.40;;;;;;;3.57;64.00;99607.62;107493;1268;22634;-81
2022/02/18 06:15:43;;;;;;;3.70;0.50;;;;;;;3.56;64.04;99604.40;106995;1268;24271;-80
2022/02/18 06:18:14;;;;;;;6.10;0.50;;;;;;;3.56;64.10;99610.25;107349;1268;23298;-81
2022/02/18 06:20:45;;;;;;;7.50;0.60;;;;;;;3.55;64.09;99609.79;107439;1268;22652;-81
2022/02/18 06:23:15;;;;;;;6.50;0.90;;;;;;;3.55;64.12;99608.39;106820;1269;24215;-79
2022/02/18 06:25:47;;;;;;;7.10;0.50;;;;;;;3.54;64.22;99609.63;106795;1268;22558;-79
2022/02/18 06:28:18;;;;;;;6.90;0.70;;;;;;;3.53;64.27;99607.74;106897;1268;22630;-79
2022/02/18 06:30:49;;;;;;;7.30;0.60;;;;;;;3.52;64.38;99604.09;107105;1268;22553;-80
2022/02/18 06:33:20;;;;;;;15.10;1.40;;;;;;;3.52;64.36;99610.96;107053;1268;26619;-81
2022/02/18 06:35:51;;;;;;;15.90;1.60;;;;;;;3.52;64.37;99614.56;107237;1268;25395;-81
2022/02/18 06:38:22;;;;;;;9.50;1.10;;;;;;;3.52;64.44;99613.71;106848;1268;22577;-79
2022/02/18 06:40:54;;;;;;;9.90;1.10;;;;;;;3.53;64.47;99613.52;106815;1268;25506;-77
2022/02/18 06:43:26;;;;;;;14.00;1.20;;;;;;;3.55;64.56;99617.20;106849;1268;25447;-77
2022/02/18 06:45:57;;;;;;;8.20;1.10;;;;;;;3.59;64.57;99619.22;106911;1268;24277;-77
2022/02/18 06:48:29;;;;;;;6.80;0.60;;;;;;;3.63;64.48;99618.68;106875;1268;22556;-76
2022/02/18 06:51:01;;;;;;;8.00;0.70;;;;;;;3.67;64.48;99622.41;106790;1268;22646;-77
2022/02/18 06:53:34;;;;;;;9.30;1.50;;;;;;;3.71;64.59;99624.46;106832;1268;25248;-77
2022/02/18 06:56:09;;;;;;;7.60;1.00;;;;;;;3.75;64.59;99626.15;107108;1268;22551;-76
2022/02/18 06:58:41;;;;;;;11.20;0.90;;;;;;;3.77;64.68;99625.04;106787;1270;24391;-77
2022/02/18 07:01:12;;;;;;;7.10;0.50;;;;;;;3.80;64.61;99628.71;106938;1268;23848;-76
2022/02/18 07:03:48;;;;;;;7.80;0.80;;;;;;;3.83;64.54;99632.79;106826;1268;22543;-77
2022/02/18 07:06:20;;;;;;;8.50;0.70;;;;;;;3.85;64.59;99631.05;107021;1268;25269;-77
2022/02/18 07:08:53;;;;;;;5.70;1.00;;;;;;;3.88;64.54;99636.27;106837;1268;22713;-77
2022/02/18 07:11:26;;;;;;;10.70;0.80;;;;;;;3.90;64.59;99636.89;106932;1268;22720;-77
2022/02/18 07:14:03;;;;;;;10.20;0.90;;;;;;;3.92;64.70;99633.35;106887;1268;25285;-77
2022/02/18 07:16:36;;;;;;;6.50;0.60;;;;;;;3.96;64.76;99631.94;107068;1268;24221;-76
2022/02/18 07:19:07;;;;;;;12.00;0.80;;;;;;;4.00;64.78;99640.30;106771;1268;22706;-77
2022/02/18 07:21:40;;;;;;;8.20;0.80;;;;;;;4.06;64.85;99646.65;106749;1268;22696;-76
2022/02/18 07:24:14;;;;;;;4.80;0.60;;;;;;;4.11;64.92;99642.69;107067;1268;22701;-75
2022/02/18 07:26:45;;;;;;;10.40;0.80;;;;;;;4.16;64.89;99642.10;107034;1268;22766;-76
2022/02/18 07:29:18;;;;;;;8.40;0.80;;;;;;;4.23;65.08;99633.81;106844;1268;23197;-77
2022/02/18 07:31:50;;;;;;;11.20;0.80;;;;;;;4.31;65.16;99639.20;106829;1268;22571;-77
2022/02/18 07:34:24;;;;;;;11.00;0.70;;;;;;;4.39;65.28;99644.73;107194;1268;23280;-78
2022/02/18 07:36:56;;;;;;;10.00;0.90;;;;;;;4.45;65.16;99644.76;107118;1268;24280;-77
2022/02/18 07:39:27;;;;;;;7.20;0.70;;;;;;;4.50;65.24;99648.45;106825;1268;22666;-76
2022/02/18 07:42:01;;;;;;;11.30;0.80;;;;;;;4.54;65.19;99650.95;106796;1268;24227;-77
2022/02/18 07:44:32;;;;;;;12.50;1.20;;;;;;;4.58;65.32;99645.35;106882;1268;25554;-77
2022/02/18 07:47:05;;;;;;;8.50;0.90;;;;;;;4.61;65.27;99640.42;106770;1268;22868;-77
2022/02/18 07:49:39;;;;;;;9.40;0.90;;;;;;;4.64;65.32;99640.23;106788;1268;23409;-77
2022/02/18 07:52:14;;;;;;;11.10;1.10;;;;;;;4.69;65.39;99643.10;107014;1268;25560;-77
2022/02/18 07:54:47;;;;;;;9.40;0.90;;;;;;;4.74;65.46;99643.95;106818;1268;22538;-77
2022/02/18 07:57:19;;;;;;;6.50;0.70;;;;;;;4.77;65.36;99644.20;106928;1268;22573;-77
2022/02/18 07:59:55;;;;;;;12.90;0.90;;;;;;;4.81;65.45;99642.89;106788;1268;22535;-77
2022/02/18 08:02:29;;;;;;;11.10;0.80;;;;;;;4.85;65.46;99645.34;107288;1268;22571;-76
2022/02/18 08:05:01;;;;;;;11.40;0.90;;;;;;;4.88;65.49;99641.55;106980;1267;22571;-77
2022/02/18 08:07:33;;;;;;;12.90;1.00;;;;;;;4.92;65.55;99640.96;106829;1268;22560;-77
2022/02/18 08:10:11;;;;;;;9.00;1.30;;;;;;;4.98;65.62;99640.65;106968;1268;22564;-77
2022/02/18 08:12:46;;;;;;;14.60;1.10;;;;;;;5.04;65.59;99645.28;107057;1268;22533;-77
2022/02/18 08:15:19;;;;;;;10.00;0.90;;;;;;;5.10;65.61;99639.11;106901;1268;22518;-77
2022/02/18 08:17:51;;;;;;;10.90;0.90;;;;;;;5.17;65.53;99636.97;106881;1268;22570;-77
2022/02/18 08:20:23;;;;;;;9.90;1.10;;;;;;;5.22;65.36;99637.22;107013;1268;23757;-77
2022/02/18 08:22:55;;;;;;;6.10;0.90;;;;;;;5.28;65.39;99635.45;107035;1268;23780;-77
2022/02/18 08:25:27;;;;;;;11.60;0.90;;;;;;;5.34;65.31;99640.41;106885;1268;22626;-77
2022/02/18 08:28:00;;;;;;;8.10;1.20;;;;;;;5.40;65.27;99643.66;106868;1268;24262;-77
2022/02/18 08:30:32;;;;;;;10.50;1.30;;;;;;;5.46;65.24;99635.89;106815;1268;24686;-77
2022/02/18 08:33:04;;;;;;;12.70;1.30;;;;;;;5.53;65.02;99636.88;106695;1270;22561;-77
2022/02/18 08:35:37;;;;;;;16.50;1.00;;;;;;;5.60;65.12;99639.02;106922;1268;22579;-75
2022/02/18 08:38:09;;;;;;;11.90;1.10;;;;;;;5.65;64.95;99639.02;106943;1268;22597;-77
2022/02/18 08:40:41;;;;;;;7.00;0.80;;;;;;;5.71;65.10;99636.02;107229;1268;24213;-77
2022/02/18 08:43:12;;;;;;;10.20;0.80;;;;;;;5.79;65.03;99628.41;107088;1268;22589;-77
2022/02/18 08:45:46;;;;;;;7.50;1.00;;;;;;;5.85;64.67;99626.04;106995;1268;22963;-77
2022/02/18 08:48:17;;;;;;;9.30;0.90;;;;;;;5.91;64.72;99632.73;107062;1268;22697;-77
2022/02/18 08:50:48;;;;;;;7.40;0.80;;;;;;;5.99;64.69;99635.81;106942;1268;22544;-77
2022/02/18 08:53:19;;;;;;;13.20;1.00;;;;;;;6.04;64.56;99626.32;106946;1268;23979;-77
2022/02/18 08:55:51;;;;;;;7.40;0.90;;;;;;;6.10;64.70;99623.61;106990;1268;22544;-77
2022/02/18 08:58:23;;;;;;;11.00;0.90;;;;;;;6.16;64.67;99626.24;106861;1268;24268;-77
2022/02/18 09:00:54;;;;;;;8.10;0.90;;;;;;;6.24;64.54;99626.45;106917;1267;24804;-77
2022/02/18 09:03:25;;;;;;;8.20;0.90;;;;;;;6.29;64.47;99634.20;107146;1268;25396;-77
2022/02/18 09:06:01;;;;;;;5.30;0.90;;;;;;;6.35;64.20;99634.16;107067;1268;22558;-77
2022/02/18 09:08:35;;;;;;;10.40;1.30;;;;;;;6.41;64.02;99638.48;107595;1268;25943;-78
2022/02/18 09:11:06;;;;;;;6.30;0.70;;;;;;;6.46;64.01;99638.48;107074;1268;23407;-77
2022/02/18 09:13:38;;;;;;;7.30;0.70;;;;;;;6.51;63.90;99629.16;107018;1268;22505;-77
2022/02/18 09:16:09;;;;;;;9.30;1.10;;;;;;;6.54;64.17;99630.52;106964;1268;22943;-78
2022/02/18 09:18:42;;;;;;;13.00;1.20;;;;;;;6.61;64.24;99629.48;107087;1268;22576;-80
2022/02/18 09:21:14;;;;;;;13.20;1.00;;;;;;;6.67;63.82;99631.10;107119;1268;24919;-78
2022/02/18 09:23:46;;;;;;;8.80;1.10;;;;;;;6.71;63.81;99627.27;106900;1271;25337;-78
2022/02/18 09:26:19;;;;;;;13.20;1.30;;;;;;;6.75;63.69;99629.86;107077;1268;22547;-79
2022/02/18 09:28:51;;;;;;;9.30;0.80;;;;;;;6.79;63.81;99631.66;107056;1268;25374;-78
2022/02/18 09:31:25;;;;;;;13.50;1.40;;;;;;;6.81;63.57;99629.26;106872;1268;22541;-79
2022/02/18 09:33:57;;;;;;;11.40;0.90;;;;;;;6.82;63.68;99629.94;107636;1268;23352;-79
2022/02/18 09:36:31;;;;;;;10.00;0.90;;;;;;;6.83;63.59;99631.08;107281;1268;23472;-79
2022/02/18 09:39:03;;;;;;;11.30;0.70;;;;;;;6.83;63.38;99625.46;107126;1270;22597;-80
2022/02/18 09:41:35;;;;;;;11.40;0.70;;;;;;;6.82;63.37;99622.73;107339;1270;25262;-77
2022/02/18 09:44:12;;;;;;;12.00;0.90;;;;;;;6.83;63.49;99626.33;106852;1271;24259;-77
2022/02/18 09:46:45;;;;;;;10.40;1.20;;;;;;;6.87;63.28;99615.23;106864;1270;22540;-77
2022/02/18 09:49:19;;;;;;;6.10;0.80;;;;;;;6.93;63.35;99612.73;106897;1271;23515;-77
2022/02/18 09:51:56;;;;;;;9.30;0.90;;;;;;;7.00;63.21;99609.96;107038;1269;25415;-78
2022/02/18 09:54:28;;;;;;;7.50;0.90;;;;;;;7.05;63.12;99607.27;106865;1271;24053;-76
2022/02/18 09:57:02;;;;;;;9.00;1.00;;;;;;;7.13;63.02;99601.29;106815;1268;22975;-75
2022/02/18 09:59:40;;;;;;;11.70;1.00;;;;;;;7.21;62.57;99597.98;106992;1271;22492;-78
2022/02/18 10:02:21;;;;;;;9.90;1.20;;;;;;;7.28;63.11;99595.94;107012;1270;22563;-80
2022/02/18 10:04:53;;;;;;;9.10;1.10;;;;;;;7.40;62.96;99591.48;107347;1268;25454;-79
2022/02/18 10:07:27;;;;;;;9.80;1.00;;;;;;;7.50;62.52;99580.98;107359;1268;22589;-79
2022/02/18 10:10:14;;;;;;;10.50;1.00;;;;;;;7.58;62.68;99583.77;107388;1268;23388;-79
2022/02/18 10:12:46;;;;;;;10.30;1.20;;;;;;;7.64;62.35;99587.48;107465;1268;22557;-80
2022/02/18 10:15:21;;;;;;;8.10;1.30;;;;;;;7.67;62.25;99589.65;107527;1268;25320;-79
2022/02/18 10:18:09;;;;;;;11.20;1.20;;;;;;;7.69;62.23;99588.33;107144;1270;25270;-79
2022/02/18 10:20:47;;;;;;;11.30;1.20;;;;;;;7.74;62.41;99584.35;107273;1268;23065;-79
2022/02/18 10:23:23;;;;;;;14.50;1.50;;;;;;;7.83;62.59;99580.94;107331;1269;22593;-79
2022/02/18 10:25:55;;;;;;;11.20;1.40;;;;;;;7.93;62.84;99576.13;107438;1268;22543;-79
2022/02/18 10:28:28;;;;;;;9.90;1.20;;;;;;;8.02;62.70;99575.08;107501;1268;22563;-81
2022/02/18 10:31:07;;;;;;;10.30;1.20;;;;;;;8.07;62.67;99567.89;107411;1270;22598;-80
2022/02/18 10:33:39;;;;;;;18.60;1.10;;;;;;;8.09;62.19;99567.61;107986;1268;22799;-80
2022/02/18 10:36:15;;;;;;;13.20;1.10;;;;;;;8.09;61.37;99576.52;107535;1268;22529;-80
2022/02/18 10:38:49;;;;;;;10.70;1.30;;;;;;;8.07;61.40;99574.81;107805;1268;22574;-80
2022/02/18 10:41:24;;;;;;;8.80;1.00;;;;;;;8.04;61.34;99573.20;107704;1268;25386;-81
2022/02/18 10:44:02;;;;;;;8.50;0.90;;;;;;;8.06;61.37;99568.83;107645;1268;22499;-79
2022/02/18 10:46:55;;;;;;;9.60;0.90;;;;;;;8.09;61.58;99558.79;106988;1268;22540;-79
2022/02/18 10:49:30;;;;;;;7.80;0.70;;;;;;;8.20;61.68;99557.96;107257;1268;22471;-80
2022/02/18 10:52:03;;;;;;;15.70;1.10;;;;;;;8.32;60.80;99556.33;107518;1269;22673;-79
2022/02/18 10:54:37;;;;;;;10.80;1.10;;;;;;;8.38;60.86;99551.52;107198;1268;22691;-79
2022/02/18 10:57:23;;;;;;;7.50;0.80;;;;;;;8.45;60.65;99546.02;107499;1268;22522;-82
2022/02/18 10:59:56;;;;;;;17.10;0.90;;;;;;;8.53;60.18;99538.27;108158;1268;22473;-80
2022/02/18 11:02:40;;;;;;;9.50;1.00;;;;;;;8.60;60.56;99532.45;107484;1269;25113;-83
2022/02/18 11:05:26;;;;;;;10.30;0.90;;;;;;;8.67;60.39;99530.03;107553;1268;22491;-80
2022/02/18 11:07:58;;;;;;;6.10;0.70;;;;;;;8.73;60.38;99521.93;107612;1268;22535;-81
2022/02/18 11:10:39;;;;;;;9.60;1.00;;;;;;;8.80;60.10;99513.63;107674;1270;22554;-80
2022/02/18 11:13:08;;;;;;;;;;;;;;;8.90;59.56;99504.77;107639;1269;22720;-81
2022/02/18 11:15:42;;;;;;;8.40;1.20;;;;;;;8.99;59.30;99494.80;107886;1268;25301;-83
2022/02/18 11:18:14;;;;;;;10.70;1.00;;;;;;;9.01;58.97;99485.16;107955;1268;22552;-81
2022/02/18 11:20:47;;;;;;;7.40;0.80;;;;;;;8.97;58.90;99483.24;107970;1270;22529;-81
2022/02/18 11:23:21;;;;;;;12.10;1.00;;;;;;;8.94;59.18;99487.41;107864;1268;22532;-82
2022/02/18 11:25:52;;;;;;;10.60;1.30;;;;;;;8.88;58.36;99486.48;107773;1268;22544;-79
2022/02/18 11:28:25;;;;;;;7.90;0.80;;;;;;;8.81;58.27;99481.38;107580;1271;22652;-80
2022/02/18 11:30:59;;;;;;;6.80;0.90;;;;;;;8.79;58.33;99478.05;107050;1268;22879;-80
2022/02/18 11:33:47;;;;;;;13.50;1.40;;;;;;;8.83;58.32;99474.45;107419;1268;22544;-80
2022/02/18 11:36:37;;;;;;;11.60;1.30;;;;;;;8.89;58.81;99466.58;107153;1268;23944;-79
2022/02/18 11:39:39;;;;;;;5.40;0.80;;;;;;;8.96;58.75;99458.39;107289;1268;23732;-80
2022/02/18 11:42:25;;;;;;;8.00;1.10;;;;;;;9.05;58.33;99451.21;107443;1269;25912;-80
2022/02/18 11:44:57;;;;;;;8.60;1.00;;;;;;;9.11;57.94;99445.60;107375;1268;25392;-81
2022/02/18 11:47:34;;;;;;;6.00;0.70;;;;;;;9.14;57.59;99443.97;107901;1268;25280;-80
2022/02/18 11:50:12;;;;;;;8.30;1.00;;;;;;;9.19;56.23;99440.58;107840;1269;22602;-81
2022/02/18 11:52:49;;;;;;;9.20;1.00;;;;;;;9.20;56.02;99439.45;107893;1268;22539;-79
2022/02/18 11:55:31;;;;;;;10.50;0.80;;;;;;;9.20;55.88;99431.29;107543;1269;22727;-80
2022/02/18 11:58:11;;;;;;;6.60;0.80;;;;;;;9.19;55.84;99430.45;107432;1268;22549;-79